sensor_id;sensor_type;location;lat;lon;timestamp;P1;durP1;ratioP1;P2;durP2;ratioP2
56297;SDS011;42208;6.376;-10.782;2023-07-28T00:00:26;21.42;;;7.07;;
56297;SDS011;42208;6.376;-10.782;2023-07-28T00:02:54;19.13;;;7.32;;
56297;SDS011;42208;6.376;-10.782;2023-07-28T00:05:23;21.00;;;6.50;;
56297;SDS011;42208;6.376;-10.782;2023-07-28T00:07:53;24.58;;;7.18;;
56297;SDS011;42208;6.376;-10.782;2023-07-28T00:10:22;30.05;;;7.25;;
56297;SDS011;42208;6.376;-10.782;2023-07-28T00:12:50;19.70;;;7.28;;
56297;SDS011;42208;6.376;-10.782;2023-07-28T00:15:19;54.95;;;29.42;;
56297;SDS011;42208;6.376;-10.782;2023-07-28T00:17:48;45.10;;;23.48;;
56297;SDS011;42208;6.376;-10.782;2023-07-28T00:20:17;35.78;;;17.13;;
56297;SDS011;42208;6.376;-10.782;2023-07-28T00:22:45;37.30;;;15.20;;
56297;SDS011;42208;6.376;-10.782;2023-07-28T00:25:14;33.22;;;15.45;;
56297;SDS011;42208;6.376;-10.782;2023-07-28T00:27:43;37.47;;;15.50;;
56297;SDS011;42208;6.376;-10.782;2023-07-28T00:30:12;58.78;;;26.80;;
56297;SDS011;42208;6.376;-10.782;2023-07-28T00:32:46;64.43;;;26.60;;
56297;SDS011;42208;6.376;-10.782;2023-07-28T00:35:15;73.20;;;27.35;;
56297;SDS011;42208;6.376;-10.782;2023-07-28T00:37:43;68.78;;;20.92;;
56297;SDS011;42208;6.376;-10.782;2023-07-28T00:40:12;68.97;;;27.83;;
56297;SDS011;42208;6.376;-10.782;2023-07-28T00:42:41;47.15;;;19.70;;
56297;SDS011;42208;6.376;-10.782;2023-07-28T00:45:09;41.40;;;20.23;;
56297;SDS011;42208;6.376;-10.782;2023-07-28T00:47:38;39.05;;;17.08;;
56297;SDS011;42208;6.376;-10.782;2023-07-28T00:50:08;36.20;;;9.88;;
56297;SDS011;42208;6.376;-10.782;2023-07-28T00:52:39;30.92;;;16.00;;
56297;SDS011;42208;6.376;-10.782;2023-07-28T00:55:08;22.38;;;10.15;;
56297;SDS011;42208;6.376;-10.782;2023-07-28T00:57:37;30.50;;;13.13;;
56297;SDS011;42208;6.376;-10.782;2023-07-28T01:00:06;41.33;;;18.48;;
56297;SDS011;42208;6.376;-10.782;2023-07-28T01:02:36;44.47;;;18.73;;
56297;SDS011;42208;6.376;-10.782;2023-07-28T01:05:05;48.03;;;21.27;;
56297;SDS011;42208;6.376;-10.782;2023-07-28T01:07:46;27.85;;;10.77;;
56297;SDS011;42208;6.376;-10.782;2023-07-28T01:10:30;30.65;;;11.50;;
56297;SDS011;42208;6.376;-10.782;2023-07-28T01:13:00;37.80;;;15.30;;
56297;SDS011;42208;6.376;-10.782;2023-07-28T01:15:31;29.27;;;11.68;;
56297;SDS011;42208;6.376;-10.782;2023-07-28T01:18:00;27.63;;;10.13;;
56297;SDS011;42208;6.376;-10.782;2023-07-28T01:20:30;24.67;;;6.90;;
56297;SDS011;42208;6.376;-10.782;2023-07-28T01:23:20;20.60;;;4.95;;
56297;SDS011;42208;6.376;-10.782;2023-07-28T01:28:37;17.58;;;5.38;;
56297;SDS011;42208;6.376;-10.782;2023-07-28T01:31:09;17.73;;;6.05;;
56297;SDS011;42208;6.376;-10.782;2023-07-28T01:33:37;39.05;;;13.60;;
56297;SDS011;42208;6.376;-10.782;2023-07-28T01:36:06;31.98;;;11.20;;
56297;SDS011;42208;6.376;-10.782;2023-07-28T01:38:34;39.03;;;11.70;;
56297;SDS011;42208;6.376;-10.782;2023-07-28T01:41:03;20.85;;;6.90;;
56297;SDS011;42208;6.376;-10.782;2023-07-28T01:43:31;23.80;;;7.88;;
56297;SDS011;42208;6.376;-10.782;2023-07-28T01:46:00;25.60;;;6.45;;
56297;SDS011;42208;6.376;-10.782;2023-07-28T01:48:29;17.58;;;6.35;;
56297;SDS011;42208;6.376;-10.782;2023-07-28T01:50:57;18.73;;;6.32;;
56297;SDS011;42208;6.376;-10.782;2023-07-28T01:53:26;24.00;;;8.07;;
56297;SDS011;42208;6.376;-10.782;2023-07-28T01:55:54;23.85;;;8.07;;
56297;SDS011;42208;6.376;-10.782;2023-07-28T01:58:23;24.35;;;7.30;;
56297;SDS011;42208;6.376;-10.782;2023-07-28T02:00:51;22.25;;;7.15;;
56297;SDS011;42208;6.376;-10.782;2023-07-28T02:03:20;26.08;;;6.20;;
56297;SDS011;42208;6.376;-10.782;2023-07-28T02:05:49;24.05;;;7.47;;
56297;SDS011;42208;6.376;-10.782;2023-07-28T02:08:17;26.05;;;8.20;;
56297;SDS011;42208;6.376;-10.782;2023-07-28T02:10:46;20.23;;;7.05;;
56297;SDS011;42208;6.376;-10.782;2023-07-28T02:13:15;19.85;;;7.38;;
56297;SDS011;42208;6.376;-10.782;2023-07-28T02:15:43;18.77;;;6.07;;
56297;SDS011;42208;6.376;-10.782;2023-07-28T02:18:12;26.00;;;7.47;;
56297;SDS011;42208;6.376;-10.782;2023-07-28T02:20:40;31.33;;;9.30;;
56297;SDS011;42208;6.376;-10.782;2023-07-28T02:23:09;45.72;;;12.52;;
56297;SDS011;42208;6.376;-10.782;2023-07-28T02:25:39;33.85;;;10.27;;
56297;SDS011;42208;6.376;-10.782;2023-07-28T02:28:10;35.65;;;10.02;;
56297;SDS011;42208;6.376;-10.782;2023-07-28T02:30:39;25.08;;;7.20;;
56297;SDS011;42208;6.376;-10.782;2023-07-28T02:33:07;29.77;;;8.20;;
56297;SDS011;42208;6.376;-10.782;2023-07-28T02:35:36;33.92;;;8.02;;
56297;SDS011;42208;6.376;-10.782;2023-07-28T02:38:04;26.38;;;7.63;;
56297;SDS011;42208;6.376;-10.782;2023-07-28T02:40:33;27.30;;;7.40;;
56297;SDS011;42208;6.376;-10.782;2023-07-28T02:43:01;40.15;;;7.93;;
56297;SDS011;42208;6.376;-10.782;2023-07-28T02:45:32;26.70;;;8.13;;
56297;SDS011;42208;6.376;-10.782;2023-07-28T02:48:01;28.85;;;8.32;;
56297;SDS011;42208;6.376;-10.782;2023-07-28T02:50:29;30.98;;;7.20;;
56297;SDS011;42208;6.376;-10.782;2023-07-28T02:52:58;22.67;;;6.75;;
56297;SDS011;42208;6.376;-10.782;2023-07-28T02:55:27;19.17;;;6.65;;
56297;SDS011;42208;6.376;-10.782;2023-07-28T02:57:55;19.20;;;6.95;;
56297;SDS011;42208;6.376;-10.782;2023-07-28T03:00:24;24.33;;;7.25;;
56297;SDS011;42208;6.376;-10.782;2023-07-28T03:02:53;19.30;;;6.57;;
56297;SDS011;42208;6.376;-10.782;2023-07-28T03:05:21;18.98;;;5.85;;
56297;SDS011;42208;6.376;-10.782;2023-07-28T03:08:25;14.75;;;5.53;;
56297;SDS011;42208;6.376;-10.782;2023-07-28T03:11:10;12.90;;;5.72;;
56297;SDS011;42208;6.376;-10.782;2023-07-28T03:13:41;17.73;;;5.57;;
56297;SDS011;42208;6.376;-10.782;2023-07-28T03:16:11;18.23;;;5.68;;
56297;SDS011;42208;6.376;-10.782;2023-07-28T03:18:42;17.30;;;6.18;;
56297;SDS011;42208;6.376;-10.782;2023-07-28T03:21:13;24.58;;;7.38;;
56297;SDS011;42208;6.376;-10.782;2023-07-28T03:23:42;21.17;;;7.97;;
56297;SDS011;42208;6.376;-10.782;2023-07-28T03:26:10;20.23;;;8.30;;
56297;SDS011;42208;6.376;-10.782;2023-07-28T03:28:39;23.60;;;7.07;;
56297;SDS011;42208;6.376;-10.782;2023-07-28T03:31:08;27.27;;;7.60;;
56297;SDS011;42208;6.376;-10.782;2023-07-28T03:33:36;17.55;;;7.28;;
56297;SDS011;42208;6.376;-10.782;2023-07-28T03:36:04;16.38;;;6.30;;
56297;SDS011;42208;6.376;-10.782;2023-07-28T03:38:36;18.73;;;6.68;;
56297;SDS011;42208;6.376;-10.782;2023-07-28T03:41:05;16.20;;;5.60;;
56297;SDS011;42208;6.376;-10.782;2023-07-28T03:43:34;24.58;;;6.13;;
56297;SDS011;42208;6.376;-10.782;2023-07-28T03:46:02;18.15;;;6.07;;
56297;SDS011;42208;6.376;-10.782;2023-07-28T03:48:31;17.02;;;5.60;;
56297;SDS011;42208;6.376;-10.782;2023-07-28T03:51:00;20.42;;;5.75;;
56297;SDS011;42208;6.376;-10.782;2023-07-28T03:53:28;16.38;;;6.38;;
56297;SDS011;42208;6.376;-10.782;2023-07-28T03:55:57;21.30;;;7.10;;
56297;SDS011;42208;6.376;-10.782;2023-07-28T03:58:25;17.60;;;4.90;;
56297;SDS011;42208;6.376;-10.782;2023-07-28T04:00:54;13.13;;;3.47;;
56297;SDS011;42208;6.376;-10.782;2023-07-28T04:03:24;18.33;;;5.03;;
56297;SDS011;42208;6.376;-10.782;2023-07-28T04:05:55;12.60;;;4.85;;
56297;SDS011;42208;6.376;-10.782;2023-07-28T04:08:24;20.27;;;6.85;;
56297;SDS011;42208;6.376;-10.782;2023-07-28T04:10:52;25.02;;;7.95;;
56297;SDS011;42208;6.376;-10.782;2023-07-28T04:13:21;35.55;;;9.27;;
56297;SDS011;42208;6.376;-10.782;2023-07-28T04:15:50;19.60;;;7.20;;
56297;SDS011;42208;6.376;-10.782;2023-07-28T04:18:18;25.17;;;8.20;;
56297;SDS011;42208;6.376;-10.782;2023-07-28T04:20:47;29.98;;;8.90;;
56297;SDS011;42208;6.376;-10.782;2023-07-28T04:23:16;23.50;;;8.65;;
56297;SDS011;42208;6.376;-10.782;2023-07-28T04:25:45;25.45;;;9.25;;
56297;SDS011;42208;6.376;-10.782;2023-07-28T04:28:14;25.92;;;9.35;;
56297;SDS011;42208;6.376;-10.782;2023-07-28T04:30:44;24.55;;;8.50;;
56297;SDS011;42208;6.376;-10.782;2023-07-28T04:33:31;19.67;;;7.78;;
56297;SDS011;42208;6.376;-10.782;2023-07-28T04:36:02;21.27;;;8.45;;
56297;SDS011;42208;6.376;-10.782;2023-07-28T04:38:33;23.73;;;7.63;;
56297;SDS011;42208;6.376;-10.782;2023-07-28T04:41:02;20.15;;;6.55;;
56297;SDS011;42208;6.376;-10.782;2023-07-28T04:43:47;24.45;;;8.23;;
56297;SDS011;42208;6.376;-10.782;2023-07-28T04:46:16;22.27;;;9.32;;
56297;SDS011;42208;6.376;-10.782;2023-07-28T04:48:50;26.73;;;10.30;;
56297;SDS011;42208;6.376;-10.782;2023-07-28T04:51:42;31.50;;;12.00;;
56297;SDS011;42208;6.376;-10.782;2023-07-28T04:54:34;27.10;;;8.93;;
56297;SDS011;42208;6.376;-10.782;2023-07-28T04:57:03;23.40;;;8.43;;
56297;SDS011;42208;6.376;-10.782;2023-07-28T04:59:34;22.25;;;7.78;;
56297;SDS011;42208;6.376;-10.782;2023-07-28T05:02:02;23.35;;;7.15;;
56297;SDS011;42208;6.376;-10.782;2023-07-28T05:04:31;18.05;;;7.10;;
56297;SDS011;42208;6.376;-10.782;2023-07-28T05:06:59;23.38;;;9.10;;
56297;SDS011;42208;6.376;-10.782;2023-07-28T05:09:28;21.45;;;9.73;;
56297;SDS011;42208;6.376;-10.782;2023-07-28T05:11:57;22.55;;;8.05;;
56297;SDS011;42208;6.376;-10.782;2023-07-28T05:14:25;24.02;;;7.55;;
56297;SDS011;42208;6.376;-10.782;2023-07-28T05:16:54;23.45;;;8.00;;
56297;SDS011;42208;6.376;-10.782;2023-07-28T05:19:34;23.52;;;8.60;;
56297;SDS011;42208;6.376;-10.782;2023-07-28T05:22:21;23.55;;;7.22;;
56297;SDS011;42208;6.376;-10.782;2023-07-28T05:24:53;15.88;;;7.25;;
56297;SDS011;42208;6.376;-10.782;2023-07-28T05:27:26;20.40;;;5.88;;
56297;SDS011;42208;6.376;-10.782;2023-07-28T05:29:55;16.45;;;6.03;;
56297;SDS011;42208;6.376;-10.782;2023-07-28T05:32:23;15.57;;;6.97;;
56297;SDS011;42208;6.376;-10.782;2023-07-28T05:35:30;14.95;;;5.90;;
56297;SDS011;42208;6.376;-10.782;2023-07-28T05:37:58;17.70;;;6.30;;
56297;SDS011;42208;6.376;-10.782;2023-07-28T05:40:27;19.90;;;6.00;;
56297;SDS011;42208;6.376;-10.782;2023-07-28T05:42:56;16.90;;;6.35;;
56297;SDS011;42208;6.376;-10.782;2023-07-28T05:45:24;18.23;;;7.50;;
56297;SDS011;42208;6.376;-10.782;2023-07-28T05:47:53;25.27;;;8.60;;
56297;SDS011;42208;6.376;-10.782;2023-07-28T05:50:21;22.00;;;8.32;;
56297;SDS011;42208;6.376;-10.782;2023-07-28T05:52:50;18.20;;;7.53;;
56297;SDS011;42208;6.376;-10.782;2023-07-28T05:55:18;17.98;;;7.25;;
56297;SDS011;42208;6.376;-10.782;2023-07-28T05:57:47;14.68;;;6.85;;
56297;SDS011;42208;6.376;-10.782;2023-07-28T06:00:19;21.25;;;8.05;;
56297;SDS011;42208;6.376;-10.782;2023-07-28T06:02:48;29.02;;;10.32;;
56297;SDS011;42208;6.376;-10.782;2023-07-28T06:05:33;20.90;;;6.88;;
56297;SDS011;42208;6.376;-10.782;2023-07-28T06:08:02;30.80;;;7.47;;
56297;SDS011;42208;6.376;-10.782;2023-07-28T06:10:31;21.40;;;8.98;;
56297;SDS011;42208;6.376;-10.782;2023-07-28T06:13:00;18.05;;;8.30;;
56297;SDS011;42208;6.376;-10.782;2023-07-28T06:15:31;18.80;;;7.18;;
56297;SDS011;42208;6.376;-10.782;2023-07-28T06:18:01;18.17;;;7.55;;
56297;SDS011;42208;6.376;-10.782;2023-07-28T06:20:31;24.48;;;7.90;;
56297;SDS011;42208;6.376;-10.782;2023-07-28T06:23:02;19.80;;;7.45;;
56297;SDS011;42208;6.376;-10.782;2023-07-28T06:25:30;19.02;;;7.70;;
56297;SDS011;42208;6.376;-10.782;2023-07-28T06:28:06;23.27;;;8.38;;
56297;SDS011;42208;6.376;-10.782;2023-07-28T06:30:35;28.02;;;9.27;;
56297;SDS011;42208;6.376;-10.782;2023-07-28T06:33:07;23.83;;;8.93;;
56297;SDS011;42208;6.376;-10.782;2023-07-28T06:35:36;17.77;;;7.70;;
56297;SDS011;42208;6.376;-10.782;2023-07-28T06:38:05;17.30;;;7.97;;
56297;SDS011;42208;6.376;-10.782;2023-07-28T06:40:34;25.50;;;9.85;;
56297;SDS011;42208;6.376;-10.782;2023-07-28T06:43:02;19.30;;;7.95;;
56297;SDS011;42208;6.376;-10.782;2023-07-28T06:45:33;16.80;;;7.07;;
56297;SDS011;42208;6.376;-10.782;2023-07-28T06:48:02;18.90;;;7.43;;
56297;SDS011;42208;6.376;-10.782;2023-07-28T06:50:33;19.65;;;7.85;;
56297;SDS011;42208;6.376;-10.782;2023-07-28T06:53:01;23.33;;;7.03;;
56297;SDS011;42208;6.376;-10.782;2023-07-28T06:55:31;21.50;;;7.95;;
56297;SDS011;42208;6.376;-10.782;2023-07-28T06:58:03;20.92;;;8.13;;
56297;SDS011;42208;6.376;-10.782;2023-07-28T07:00:32;17.70;;;7.80;;
56297;SDS011;42208;6.376;-10.782;2023-07-28T07:03:01;21.52;;;7.72;;
56297;SDS011;42208;6.376;-10.782;2023-07-28T07:05:30;17.77;;;7.97;;
56297;SDS011;42208;6.376;-10.782;2023-07-28T07:07:58;21.73;;;8.15;;
56297;SDS011;42208;6.376;-10.782;2023-07-28T07:10:27;25.98;;;8.90;;
56297;SDS011;42208;6.376;-10.782;2023-07-28T07:12:56;21.58;;;8.18;;
56297;SDS011;42208;6.376;-10.782;2023-07-28T07:15:24;16.67;;;7.30;;
56297;SDS011;42208;6.376;-10.782;2023-07-28T07:17:54;21.27;;;5.88;;
56297;SDS011;42208;6.376;-10.782;2023-07-28T07:20:23;17.52;;;6.57;;
56297;SDS011;42208;6.376;-10.782;2023-07-28T07:22:51;16.58;;;6.50;;
56297;SDS011;42208;6.376;-10.782;2023-07-28T07:25:23;15.82;;;6.18;;
56297;SDS011;42208;6.376;-10.782;2023-07-28T07:27:53;26.30;;;7.65;;
56297;SDS011;42208;6.376;-10.782;2023-07-28T07:30:21;21.08;;;7.28;;
56297;SDS011;42208;6.376;-10.782;2023-07-28T07:32:50;20.08;;;7.30;;
56297;SDS011;42208;6.376;-10.782;2023-07-28T07:35:19;18.95;;;7.72;;
56297;SDS011;42208;6.376;-10.782;2023-07-28T07:37:47;26.70;;;7.72;;
56297;SDS011;42208;6.376;-10.782;2023-07-28T07:40:16;19.00;;;7.35;;
56297;SDS011;42208;6.376;-10.782;2023-07-28T07:42:48;27.05;;;8.98;;
56297;SDS011;42208;6.376;-10.782;2023-07-28T07:47:45;20.88;;;8.32;;
56297;SDS011;42208;6.376;-10.782;2023-07-28T07:50:15;20.70;;;8.13;;
56297;SDS011;42208;6.376;-10.782;2023-07-28T07:52:44;27.13;;;8.95;;
56297;SDS011;42208;6.376;-10.782;2023-07-28T07:55:13;28.02;;;8.50;;
56297;SDS011;42208;6.376;-10.782;2023-07-28T07:57:42;34.65;;;9.90;;
56297;SDS011;42208;6.376;-10.782;2023-07-28T08:00:10;32.35;;;10.90;;
56297;SDS011;42208;6.376;-10.782;2023-07-28T08:02:41;32.30;;;12.30;;
56297;SDS011;42208;6.376;-10.782;2023-07-28T08:05:13;35.15;;;12.73;;
56297;SDS011;42208;6.376;-10.782;2023-07-28T08:07:43;28.83;;;10.82;;
56297;SDS011;42208;6.376;-10.782;2023-07-28T08:10:12;32.17;;;10.13;;
56297;SDS011;42208;6.376;-10.782;2023-07-28T08:12:40;26.50;;;9.80;;
56297;SDS011;42208;6.376;-10.782;2023-07-28T08:15:09;33.40;;;11.25;;
56297;SDS011;42208;6.376;-10.782;2023-07-28T08:17:39;30.13;;;11.60;;
56297;SDS011;42208;6.376;-10.782;2023-07-28T08:20:08;33.28;;;12.30;;
56297;SDS011;42208;6.376;-10.782;2023-07-28T08:22:37;27.10;;;11.13;;
56297;SDS011;42208;6.376;-10.782;2023-07-28T08:25:06;21.13;;;9.15;;
56297;SDS011;42208;6.376;-10.782;2023-07-28T08:27:35;22.70;;;9.40;;
56297;SDS011;42208;6.376;-10.782;2023-07-28T08:30:03;30.05;;;10.27;;
56297;SDS011;42208;6.376;-10.782;2023-07-28T08:32:32;35.97;;;11.55;;
56297;SDS011;42208;6.376;-10.782;2023-07-28T08:35:01;28.63;;;10.93;;
56297;SDS011;42208;6.376;-10.782;2023-07-28T08:37:29;24.88;;;12.23;;
56297;SDS011;42208;6.376;-10.782;2023-07-28T08:39:58;29.05;;;12.02;;
56297;SDS011;42208;6.376;-10.782;2023-07-28T08:42:29;30.88;;;10.15;;
56297;SDS011;42208;6.376;-10.782;2023-07-28T08:45:03;24.40;;;9.60;;
56297;SDS011;42208;6.376;-10.782;2023-07-28T08:47:32;34.70;;;10.80;;
56297;SDS011;42208;6.376;-10.782;2023-07-28T08:50:01;30.70;;;11.15;;
56297;SDS011;42208;6.376;-10.782;2023-07-28T08:52:30;35.00;;;9.95;;
56297;SDS011;42208;6.376;-10.782;2023-07-28T08:54:59;26.75;;;10.05;;
56297;SDS011;42208;6.376;-10.782;2023-07-28T08:57:28;25.63;;;10.60;;
56297;SDS011;42208;6.376;-10.782;2023-07-28T08:59:57;23.60;;;10.45;;
56297;SDS011;42208;6.376;-10.782;2023-07-28T09:02:25;27.77;;;10.48;;
56297;SDS011;42208;6.376;-10.782;2023-07-28T09:04:55;28.80;;;10.52;;
56297;SDS011;42208;6.376;-10.782;2023-07-28T09:07:24;22.45;;;8.20;;
56297;SDS011;42208;6.376;-10.782;2023-07-28T09:09:58;21.85;;;9.13;;
56297;SDS011;42208;6.376;-10.782;2023-07-28T09:12:30;26.30;;;8.30;;
56297;SDS011;42208;6.376;-10.782;2023-07-28T09:15:00;24.58;;;8.80;;
56297;SDS011;42208;6.376;-10.782;2023-07-28T09:17:31;22.92;;;10.25;;
56297;SDS011;42208;6.376;-10.782;2023-07-28T09:20:09;29.50;;;10.35;;
56297;SDS011;42208;6.376;-10.782;2023-07-28T09:22:42;21.25;;;9.52;;
56297;SDS011;42208;6.376;-10.782;2023-07-28T09:25:12;26.48;;;9.57;;
56297;SDS011;42208;6.376;-10.782;2023-07-28T09:27:52;30.08;;;11.48;;
56297;SDS011;42208;6.376;-10.782;2023-07-28T09:30:21;33.22;;;13.38;;
56297;SDS011;42208;6.376;-10.782;2023-07-28T09:32:52;33.72;;;12.75;;
56297;SDS011;42208;6.376;-10.782;2023-07-28T09:35:22;29.55;;;12.23;;
56297;SDS011;42208;6.376;-10.782;2023-07-28T09:37:51;22.15;;;11.32;;
56297;SDS011;42208;6.376;-10.782;2023-07-28T09:40:21;25.73;;;12.68;;
56297;SDS011;42208;6.376;-10.782;2023-07-28T09:42:50;29.42;;;13.40;;
56297;SDS011;42208;6.376;-10.782;2023-07-28T09:45:22;34.33;;;12.60;;
56297;SDS011;42208;6.376;-10.782;2023-07-28T09:47:55;23.33;;;12.10;;
56297;SDS011;42208;6.376;-10.782;2023-07-28T09:50:27;27.70;;;11.82;;
56297;SDS011;42208;6.376;-10.782;2023-07-28T09:52:57;23.83;;;11.35;;
56297;SDS011;42208;6.376;-10.782;2023-07-28T09:55:29;35.10;;;12.05;;
56297;SDS011;42208;6.376;-10.782;2023-07-28T09:57:58;30.80;;;13.50;;
56297;SDS011;42208;6.376;-10.782;2023-07-28T10:00:32;22.70;;;11.57;;
56297;SDS011;42208;6.376;-10.782;2023-07-28T10:03:02;19.63;;;11.25;;
56297;SDS011;42208;6.376;-10.782;2023-07-28T10:05:33;24.27;;;10.60;;
56297;SDS011;42208;6.376;-10.782;2023-07-28T10:08:02;26.25;;;10.20;;
56297;SDS011;42208;6.376;-10.782;2023-07-28T10:10:32;26.15;;;8.93;;
56297;SDS011;42208;6.376;-10.782;2023-07-28T10:13:00;28.05;;;9.68;;
56297;SDS011;42208;6.376;-10.782;2023-07-28T10:15:30;30.17;;;11.10;;
56297;SDS011;42208;6.376;-10.782;2023-07-28T10:18:00;28.77;;;10.98;;
56297;SDS011;42208;6.376;-10.782;2023-07-28T10:20:35;41.58;;;11.48;;
56297;SDS011;42208;6.376;-10.782;2023-07-28T10:23:07;32.90;;;10.88;;
56297;SDS011;42208;6.376;-10.782;2023-07-28T10:25:40;33.20;;;11.30;;
56297;SDS011;42208;6.376;-10.782;2023-07-28T10:31:04;19.88;;;8.73;;
56297;SDS011;42208;6.376;-10.782;2023-07-28T10:33:35;20.40;;;9.55;;
56297;SDS011;42208;6.376;-10.782;2023-07-28T10:36:13;20.13;;;9.63;;
56297;SDS011;42208;6.376;-10.782;2023-07-28T10:39:02;20.55;;;9.27;;
56297;SDS011;42208;6.376;-10.782;2023-07-28T10:44:31;24.38;;;11.18;;
56297;SDS011;42208;6.376;-10.782;2023-07-28T10:46:59;25.00;;;10.75;;
56297;SDS011;42208;6.376;-10.782;2023-07-28T10:49:29;29.83;;;10.93;;
56297;SDS011;42208;6.376;-10.782;2023-07-28T10:51:57;27.63;;;10.30;;
56297;SDS011;42208;6.376;-10.782;2023-07-28T10:54:26;22.50;;;9.18;;
56297;SDS011;42208;6.376;-10.782;2023-07-28T10:56:54;22.23;;;8.40;;
56297;SDS011;42208;6.376;-10.782;2023-07-28T10:59:23;18.98;;;8.40;;
56297;SDS011;42208;6.376;-10.782;2023-07-28T11:01:52;33.90;;;13.18;;
56297;SDS011;42208;6.376;-10.782;2023-07-28T11:04:20;30.23;;;13.65;;
56297;SDS011;42208;6.376;-10.782;2023-07-28T11:06:49;19.67;;;9.40;;
56297;SDS011;42208;6.376;-10.782;2023-07-28T11:09:22;24.20;;;9.85;;
56297;SDS011;42208;6.376;-10.782;2023-07-28T11:14:19;29.15;;;12.23;;
56297;SDS011;42208;6.376;-10.782;2023-07-28T11:16:48;24.98;;;11.20;;
56297;SDS011;42208;6.376;-10.782;2023-07-28T11:19:18;29.38;;;11.50;;
56297;SDS011;42208;6.376;-10.782;2023-07-28T11:21:48;24.30;;;10.63;;
56297;SDS011;42208;6.376;-10.782;2023-07-28T11:24:19;18.52;;;8.50;;
56297;SDS011;42208;6.376;-10.782;2023-07-28T11:29:18;18.38;;;7.18;;
56297;SDS011;42208;6.376;-10.782;2023-07-28T11:31:47;20.88;;;7.80;;
56297;SDS011;42208;6.376;-10.782;2023-07-28T11:34:16;20.33;;;7.25;;
56297;SDS011;42208;6.376;-10.782;2023-07-28T11:36:46;19.40;;;7.63;;
56297;SDS011;42208;6.376;-10.782;2023-07-28T11:39:15;12.70;;;6.82;;
56297;SDS011;42208;6.376;-10.782;2023-07-28T11:41:44;16.05;;;7.32;;
56297;SDS011;42208;6.376;-10.782;2023-07-28T11:44:13;21.63;;;8.70;;
56297;SDS011;42208;6.376;-10.782;2023-07-28T11:46:43;23.38;;;8.05;;
56297;SDS011;42208;6.376;-10.782;2023-07-28T11:49:15;16.90;;;8.15;;
56297;SDS011;42208;6.376;-10.782;2023-07-28T11:51:46;22.33;;;9.15;;
56297;SDS011;42208;6.376;-10.782;2023-07-28T11:54:17;18.65;;;9.25;;
56297;SDS011;42208;6.376;-10.782;2023-07-28T11:56:49;18.83;;;7.45;;
56297;SDS011;42208;6.376;-10.782;2023-07-28T11:59:19;26.08;;;9.40;;
56297;SDS011;42208;6.376;-10.782;2023-07-28T12:01:52;24.15;;;9.18;;
56297;SDS011;42208;6.376;-10.782;2023-07-28T12:04:31;31.58;;;9.93;;
56297;SDS011;42208;6.376;-10.782;2023-07-28T12:12:17;17.10;;;7.88;;
56297;SDS011;42208;6.376;-10.782;2023-07-28T12:14:51;17.73;;;7.30;;
56297;SDS011;42208;6.376;-10.782;2023-07-28T12:17:23;18.17;;;7.53;;
56297;SDS011;42208;6.376;-10.782;2023-07-28T12:20:13;20.17;;;7.45;;
56297;SDS011;42208;6.376;-10.782;2023-07-28T12:22:43;21.75;;;8.32;;
56297;SDS011;42208;6.376;-10.782;2023-07-28T12:25:13;23.90;;;8.38;;
56297;SDS011;42208;6.376;-10.782;2023-07-28T12:27:41;27.80;;;9.75;;
56297;SDS011;42208;6.376;-10.782;2023-07-28T12:30:10;27.13;;;10.52;;
56297;SDS011;42208;6.376;-10.782;2023-07-28T12:32:43;26.45;;;10.55;;
56297;SDS011;42208;6.376;-10.782;2023-07-28T12:37:44;34.58;;;14.27;;
56297;SDS011;42208;6.376;-10.782;2023-07-28T12:40:15;30.85;;;13.65;;
56297;SDS011;42208;6.376;-10.782;2023-07-28T12:42:47;23.88;;;13.18;;
56297;SDS011;42208;6.376;-10.782;2023-07-28T12:45:19;19.77;;;10.55;;
56297;SDS011;42208;6.376;-10.782;2023-07-28T12:47:48;32.53;;;11.50;;
56297;SDS011;42208;6.376;-10.782;2023-07-28T12:50:24;30.45;;;15.52;;
56297;SDS011;42208;6.376;-10.782;2023-07-28T12:52:52;30.08;;;16.75;;
56297;SDS011;42208;6.376;-10.782;2023-07-28T12:55:24;23.10;;;12.93;;
56297;SDS011;42208;6.376;-10.782;2023-07-28T12:57:53;21.30;;;11.40;;
56297;SDS011;42208;6.376;-10.782;2023-07-28T13:00:21;27.55;;;11.68;;
56297;SDS011;42208;6.376;-10.782;2023-07-28T13:03:10;23.02;;;11.57;;
56297;SDS011;42208;6.376;-10.782;2023-07-28T13:05:40;25.05;;;11.30;;
56297;SDS011;42208;6.376;-10.782;2023-07-28T13:08:08;25.42;;;9.60;;
56297;SDS011;42208;6.376;-10.782;2023-07-28T13:10:37;25.17;;;9.00;;
56297;SDS011;42208;6.376;-10.782;2023-07-28T13:13:08;20.83;;;8.75;;
56297;SDS011;42208;6.376;-10.782;2023-07-28T13:15:41;21.85;;;10.85;;
56297;SDS011;42208;6.376;-10.782;2023-07-28T13:18:10;28.50;;;11.68;;
56297;SDS011;42208;6.376;-10.782;2023-07-28T13:20:38;22.35;;;9.25;;
56297;SDS011;42208;6.376;-10.782;2023-07-28T13:23:07;24.70;;;10.63;;
56297;SDS011;42208;6.376;-10.782;2023-07-28T13:49:43;20.67;;;11.82;;
56297;SDS011;42208;6.376;-10.782;2023-07-28T13:52:19;21.25;;;11.82;;
56297;SDS011;42208;6.376;-10.782;2023-07-28T13:54:50;36.97;;;13.50;;
56297;SDS011;42208;6.376;-10.782;2023-07-28T13:57:24;18.25;;;10.18;;
56297;SDS011;42208;6.376;-10.782;2023-07-28T13:59:54;22.20;;;10.73;;
56297;SDS011;42208;6.376;-10.782;2023-07-28T14:02:26;26.67;;;11.25;;
56297;SDS011;42208;6.376;-10.782;2023-07-28T14:07:28;25.02;;;11.23;;
56297;SDS011;42208;6.376;-10.782;2023-07-28T14:10:00;25.60;;;12.27;;
56297;SDS011;42208;6.376;-10.782;2023-07-28T14:12:34;25.02;;;11.98;;
56297;SDS011;42208;6.376;-10.782;2023-07-28T14:15:06;28.85;;;11.77;;
56297;SDS011;42208;6.376;-10.782;2023-07-28T14:17:37;35.03;;;13.57;;
56297;SDS011;42208;6.376;-10.782;2023-07-28T14:20:13;26.80;;;12.48;;
56297;SDS011;42208;6.376;-10.782;2023-07-28T14:22:44;30.80;;;13.60;;
56297;SDS011;42208;6.376;-10.782;2023-07-28T14:25:15;21.98;;;9.85;;
56297;SDS011;42208;6.376;-10.782;2023-07-28T14:27:45;17.30;;;8.47;;
56297;SDS011;42208;6.376;-10.782;2023-07-28T14:30:16;24.35;;;10.68;;
56297;SDS011;42208;6.376;-10.782;2023-07-28T14:32:50;23.67;;;10.07;;
56297;SDS011;42208;6.376;-10.782;2023-07-28T14:35:25;21.02;;;8.48;;
56297;SDS011;42208;6.376;-10.782;2023-07-28T14:38:04;29.23;;;9.68;;
56297;SDS011;42208;6.376;-10.782;2023-07-28T14:40:35;34.20;;;11.05;;
56297;SDS011;42208;6.376;-10.782;2023-07-28T14:43:06;19.67;;;9.02;;
56297;SDS011;42208;6.376;-10.782;2023-07-28T14:45:36;22.30;;;9.30;;
56297;SDS011;42208;6.376;-10.782;2023-07-28T14:48:07;27.27;;;10.75;;
56297;SDS011;42208;6.376;-10.782;2023-07-28T14:50:38;30.35;;;11.70;;
56297;SDS011;42208;6.376;-10.782;2023-07-28T14:56:02;37.10;;;11.52;;
56297;SDS011;42208;6.376;-10.782;2023-07-28T14:58:37;31.77;;;11.70;;
56297;SDS011;42208;6.376;-10.782;2023-07-28T15:01:09;29.90;;;10.07;;
56297;SDS011;42208;6.376;-10.782;2023-07-28T15:03:41;35.65;;;12.00;;
56297;SDS011;42208;6.376;-10.782;2023-07-28T15:06:12;38.72;;;17.55;;
56297;SDS011;42208;6.376;-10.782;2023-07-28T15:08:44;28.47;;;12.77;;
56297;SDS011;42208;6.376;-10.782;2023-07-28T15:11:15;61.43;;;35.27;;
56297;SDS011;42208;6.376;-10.782;2023-07-28T15:13:46;28.92;;;12.63;;
56297;SDS011;42208;6.376;-10.782;2023-07-28T15:16:17;45.10;;;30.20;;
56297;SDS011;42208;6.376;-10.782;2023-07-28T15:18:49;160.43;;;112.63;;
56297;SDS011;42208;6.376;-10.782;2023-07-28T15:21:19;82.70;;;54.33;;
56297;SDS011;42208;6.376;-10.782;2023-07-28T15:23:53;141.60;;;87.07;;
56297;SDS011;42208;6.376;-10.782;2023-07-28T15:26:29;62.13;;;40.67;;
56297;SDS011;42208;6.376;-10.782;2023-07-28T15:31:31;22.65;;;11.60;;